sensor_id;sensor_type;location;lat;lon;timestamp;temperature;humidity
2763;DHT22;1389;51.490;7.338;2022-12-10T00:01:46;1.40;99.30
2763;DHT22;1389;51.490;7.338;2022-12-10T00:04:13;1.50;99.30
2763;DHT22;1389;51.490;7.338;2022-12-10T00:06:41;1.50;99.30
2763;DHT22;1389;51.490;7.338;2022-12-10T00:09:11;1.50;99.30
2763;DHT22;1389;51.490;7.338;2022-12-10T00:11:39;1.50;99.30
2763;DHT22;1389;51.490;7.338;2022-12-10T00:14:05;1.50;99.30
2763;DHT22;1389;51.490;7.338;2022-12-10T00:16:33;1.50;99.30
2763;DHT22;1389;51.490;7.338;2022-12-10T00:19:00;1.50;99.30
2763;DHT22;1389;51.490;7.338;2022-12-10T00:21:29;1.50;99.30
2763;DHT22;1389;51.490;7.338;2022-12-10T00:23:56;1.50;99.30
2763;DHT22;1389;51.490;7.338;2022-12-10T00:26:25;1.50;99.30
2763;DHT22;1389;51.490;7.338;2022-12-10T00:28:52;1.50;99.30
2763;DHT22;1389;51.490;7.338;2022-12-10T00:31:27;1.50;99.30
2763;DHT22;1389;51.490;7.338;2022-12-10T00:33:55;1.60;99.30
2763;DHT22;1389;51.490;7.338;2022-12-10T00:36:26;1.60;99.30
2763;DHT22;1389;51.490;7.338;2022-12-10T00:38:53;1.60;99.30
2763;DHT22;1389;51.490;7.338;2022-12-10T00:41:19;1.60;99.30
2763;DHT22;1389;51.490;7.338;2022-12-10T00:43:46;1.60;99.30
2763;DHT22;1389;51.490;7.338;2022-12-10T00:46:14;1.60;99.30
2763;DHT22;1389;51.490;7.338;2022-12-10T00:48:41;1.60;99.30
2763;DHT22;1389;51.490;7.338;2022-12-10T00:51:16;1.60;99.30
2763;DHT22;1389;51.490;7.338;2022-12-10T00:53:43;1.60;99.30
2763;DHT22;1389;51.490;7.338;2022-12-10T00:56:11;1.70;99.30
2763;DHT22;1389;51.490;7.338;2022-12-10T00:58:38;1.70;99.30
2763;DHT22;1389;51.490;7.338;2022-12-10T01:01:18;1.70;99.30
2763;DHT22;1389;51.490;7.338;2022-12-10T01:03:46;1.70;99.30
2763;DHT22;1389;51.490;7.338;2022-12-10T01:06:19;1.70;99.30
2763;DHT22;1389;51.490;7.338;2022-12-10T01:08:46;1.70;99.30
2763;DHT22;1389;51.490;7.338;2022-12-10T01:11:15;1.70;99.30
2763;DHT22;1389;51.490;7.338;2022-12-10T01:13:42;1.70;99.30
2763;DHT22;1389;51.490;7.338;2022-12-10T01:16:10;1.70;99.30
2763;DHT22;1389;51.490;7.338;2022-12-10T01:18:36;1.70;99.30
2763;DHT22;1389;51.490;7.338;2022-12-10T01:21:04;1.80;99.30
2763;DHT22;1389;51.490;7.338;2022-12-10T01:23:32;1.80;99.30
2763;DHT22;1389;51.490;7.338;2022-12-10T01:26:00;1.80;99.30
2763;DHT22;1389;51.490;7.338;2022-12-10T01:28:31;1.70;99.30
2763;DHT22;1389;51.490;7.338;2022-12-10T01:31:06;1.70;99.30
2763;DHT22;1389;51.490;7.338;2022-12-10T01:33:34;1.70;99.30
2763;DHT22;1389;51.490;7.338;2022-12-10T01:36:04;1.70;99.30
2763;DHT22;1389;51.490;7.338;2022-12-10T01:38:31;1.80;99.30
2763;DHT22;1389;51.490;7.338;2022-12-10T01:40:58;1.80;99.30
2763;DHT22;1389;51.490;7.338;2022-12-10T01:43:25;1.80;99.30
2763;DHT22;1389;51.490;7.338;2022-12-10T01:45:51;1.80;99.30
2763;DHT22;1389;51.490;7.338;2022-12-10T01:48:17;1.80;99.30
2763;DHT22;1389;51.490;7.338;2022-12-10T01:50:44;1.80;99.20
2763;DHT22;1389;51.490;7.338;2022-12-10T01:53:11;1.80;99.30
2763;DHT22;1389;51.490;7.338;2022-12-10T01:55:44;1.70;99.30
2763;DHT22;1389;51.490;7.338;2022-12-10T01:58:12;1.70;99.30
2763;DHT22;1389;51.490;7.338;2022-12-10T02:00:43;1.70;99.30
2763;DHT22;1389;51.490;7.338;2022-12-10T02:03:23;1.80;99.30
2763;DHT22;1389;51.490;7.338;2022-12-10T02:11:31;1.80;99.30
2763;DHT22;1389;51.490;7.338;2022-12-10T02:14:13;1.80;99.30
2763;DHT22;1389;51.490;7.338;2022-12-10T02:17:05;1.80;99.30
2763;DHT22;1389;51.490;7.338;2022-12-10T02:19:56;1.80;99.30
2763;DHT22;1389;51.490;7.338;2022-12-10T02:22:27;1.90;99.30
2763;DHT22;1389;51.490;7.338;2022-12-10T02:24:56;1.90;99.30
2763;DHT22;1389;51.490;7.338;2022-12-10T02:27:34;1.90;99.30
2763;DHT22;1389;51.490;7.338;2022-12-10T02:30:02;1.90;99.30
2763;DHT22;1389;51.490;7.338;2022-12-10T02:32:35;1.90;99.30
2763;DHT22;1389;51.490;7.338;2022-12-10T02:35:07;1.80;99.30
2763;DHT22;1389;51.490;7.338;2022-12-10T02:37:37;1.80;99.30
2763;DHT22;1389;51.490;7.338;2022-12-10T02:40:08;1.70;99.30
2763;DHT22;1389;51.490;7.338;2022-12-10T02:42:39;1.70;99.30
2763;DHT22;1389;51.490;7.338;2022-12-10T02:45:08;1.70;99.30
2763;DHT22;1389;51.490;7.338;2022-12-10T02:47:35;1.80;99.30
2763;DHT22;1389;51.490;7.338;2022-12-10T02:50:02;1.80;99.30
2763;DHT22;1389;51.490;7.338;2022-12-10T02:52:28;1.80;99.30
2763;DHT22;1389;51.490;7.338;2022-12-10T02:54:54;1.90;99.30
2763;DHT22;1389;51.490;7.338;2022-12-10T03:00:06;1.90;99.30
2763;DHT22;1389;51.490;7.338;2022-12-10T03:05:29;1.90;99.30
2763;DHT22;1389;51.490;7.338;2022-12-10T03:08:05;1.80;99.30
2763;DHT22;1389;51.490;7.338;2022-12-10T03:13:07;1.80;99.30
2763;DHT22;1389;51.490;7.338;2022-12-10T03:15:39;1.80;99.30
2763;DHT22;1389;51.490;7.338;2022-12-10T03:18:07;1.90;99.30
2763;DHT22;1389;51.490;7.338;2022-12-10T03:20:39;1.90;99.30
2763;DHT22;1389;51.490;7.338;2022-12-10T03:23:09;1.90;99.30
2763;DHT22;1389;51.490;7.338;2022-12-10T03:25:37;1.90;99.30
2763;DHT22;1389;51.490;7.338;2022-12-10T03:28:05;1.80;99.30
2763;DHT22;1389;51.490;7.338;2022-12-10T03:30:32;1.80;99.30
2763;DHT22;1389;51.490;7.338;2022-12-10T03:33:00;1.80;99.30
2763;DHT22;1389;51.490;7.338;2022-12-10T03:35:26;1.80;99.30
2763;DHT22;1389;51.490;7.338;2022-12-10T03:37:53;1.70;99.30
2763;DHT22;1389;51.490;7.338;2022-12-10T03:40:22;1.70;99.30
2763;DHT22;1389;51.490;7.338;2022-12-10T03:42:48;1.70;99.30
2763;DHT22;1389;51.490;7.338;2022-12-10T03:45:14;1.70;99.30
2763;DHT22;1389;51.490;7.338;2022-12-10T03:47:41;1.70;99.30
2763;DHT22;1389;51.490;7.338;2022-12-10T03:50:08;1.70;99.30
2763;DHT22;1389;51.490;7.338;2022-12-10T03:52:34;1.80;99.30
2763;DHT22;1389;51.490;7.338;2022-12-10T03:55:01;1.80;99.30
2763;DHT22;1389;51.490;7.338;2022-12-10T03:57:27;1.80;99.30
2763;DHT22;1389;51.490;7.338;2022-12-10T03:59:53;1.80;99.30
2763;DHT22;1389;51.490;7.338;2022-12-10T04:02:19;1.80;99.30
2763;DHT22;1389;51.490;7.338;2022-12-10T04:04:45;1.80;98.40
2763;DHT22;1389;51.490;7.338;2022-12-10T04:07:11;1.70;98.10
2763;DHT22;1389;51.490;7.338;2022-12-10T04:09:37;1.70;97.40
2763;DHT22;1389;51.490;7.338;2022-12-10T04:12:03;1.70;96.40
2763;DHT22;1389;51.490;7.338;2022-12-10T04:14:30;1.70;96.10
2763;DHT22;1389;51.490;7.338;2022-12-10T04:17:15;1.70;96.40
2763;DHT22;1389;51.490;7.338;2022-12-10T04:19:41;1.70;96.80
2763;DHT22;1389;51.490;7.338;2022-12-10T04:22:09;1.70;96.70
2763;DHT22;1389;51.490;7.338;2022-12-10T04:24:54;1.70;96.20
2763;DHT22;1389;51.490;7.338;2022-12-10T04:27:39;1.70;96.40
2763;DHT22;1389;51.490;7.338;2022-12-10T04:30:07;1.70;96.70
2763;DHT22;1389;51.490;7.338;2022-12-10T04:32:34;1.80;96.80
2763;DHT22;1389;51.490;7.338;2022-12-10T04:35:00;1.80;96.80
2763;DHT22;1389;51.490;7.338;2022-12-10T04:37:27;1.90;96.60
2763;DHT22;1389;51.490;7.338;2022-12-10T04:39:53;1.90;95.80
2763;DHT22;1389;51.490;7.338;2022-12-10T04:42:20;1.90;95.50
2763;DHT22;1389;51.490;7.338;2022-12-10T04:44:47;1.80;95.50
2763;DHT22;1389;51.490;7.338;2022-12-10T04:47:13;1.80;95.80
2763;DHT22;1389;51.490;7.338;2022-12-10T04:49:40;1.80;96.10
2763;DHT22;1389;51.490;7.338;2022-12-10T04:52:07;1.70;96.30
2763;DHT22;1389;51.490;7.338;2022-12-10T04:54:34;1.80;96.20
2763;DHT22;1389;51.490;7.338;2022-12-10T04:57:00;1.70;96.10
2763;DHT22;1389;51.490;7.338;2022-12-10T04:59:26;1.70;96.30
2763;DHT22;1389;51.490;7.338;2022-12-10T05:01:52;1.70;96.40
2763;DHT22;1389;51.490;7.338;2022-12-10T05:04:18;1.70;96.50
2763;DHT22;1389;51.490;7.338;2022-12-10T05:06:47;1.60;96.50
2763;DHT22;1389;51.490;7.338;2022-12-10T05:09:14;1.60;96.60
2763;DHT22;1389;51.490;7.338;2022-12-10T05:11:40;1.70;96.50
2763;DHT22;1389;51.490;7.338;2022-12-10T05:14:08;1.70;96.30
2763;DHT22;1389;51.490;7.338;2022-12-10T05:16:34;1.70;96.20
2763;DHT22;1389;51.490;7.338;2022-12-10T05:19:00;1.70;96.50
2763;DHT22;1389;51.490;7.338;2022-12-10T05:21:28;1.70;96.70
2763;DHT22;1389;51.490;7.338;2022-12-10T05:24:16;1.70;96.80
2763;DHT22;1389;51.490;7.338;2022-12-10T05:26:43;1.70;96.80
2763;DHT22;1389;51.490;7.338;2022-12-10T05:29:09;1.80;96.20
2763;DHT22;1389;51.490;7.338;2022-12-10T05:31:35;1.80;96.20
2763;DHT22;1389;51.490;7.338;2022-12-10T05:34:02;1.80;96.20
2763;DHT22;1389;51.490;7.338;2022-12-10T05:36:30;1.80;96.20
2763;DHT22;1389;51.490;7.338;2022-12-10T05:38:58;1.80;95.90
2763;DHT22;1389;51.490;7.338;2022-12-10T05:41:26;1.80;96.00
2763;DHT22;1389;51.490;7.338;2022-12-10T05:43:57;1.80;96.10
2763;DHT22;1389;51.490;7.338;2022-12-10T05:46:26;1.80;96.10
2763;DHT22;1389;51.490;7.338;2022-12-10T05:48:53;1.70;96.30
2763;DHT22;1389;51.490;7.338;2022-12-10T05:51:21;1.70;96.40
2763;DHT22;1389;51.490;7.338;2022-12-10T05:53:49;1.70;96.50
2763;DHT22;1389;51.490;7.338;2022-12-10T05:56:17;1.70;96.60
2763;DHT22;1389;51.490;7.338;2022-12-10T05:58:45;1.70;96.90
2763;DHT22;1389;51.490;7.338;2022-12-10T06:01:17;1.70;96.90
2763;DHT22;1389;51.490;7.338;2022-12-10T06:03:44;1.70;97.00
2763;DHT22;1389;51.490;7.338;2022-12-10T06:06:10;1.60;97.10
2763;DHT22;1389;51.490;7.338;2022-12-10T06:08:37;1.60;97.10
2763;DHT22;1389;51.490;7.338;2022-12-10T06:11:09;1.60;97.00
2763;DHT22;1389;51.490;7.338;2022-12-10T06:13:36;1.60;96.80
2763;DHT22;1389;51.490;7.338;2022-12-10T06:16:06;1.60;96.80
2763;DHT22;1389;51.490;7.338;2022-12-10T06:18:33;1.50;96.80
2763;DHT22;1389;51.490;7.338;2022-12-10T06:20:59;1.50;96.60
2763;DHT22;1389;51.490;7.338;2022-12-10T06:23:28;1.40;96.30
2763;DHT22;1389;51.490;7.338;2022-12-10T06:25:54;1.30;96.30
2763;DHT22;1389;51.490;7.338;2022-12-10T06:28:20;1.30;96.30
2763;DHT22;1389;51.490;7.338;2022-12-10T06:30:46;1.30;96.20
2763;DHT22;1389;51.490;7.338;2022-12-10T06:33:12;1.20;96.20
2763;DHT22;1389;51.490;7.338;2022-12-10T06:35:38;1.20;95.90
2763;DHT22;1389;51.490;7.338;2022-12-10T06:38:04;1.10;96.00
2763;DHT22;1389;51.490;7.338;2022-12-10T06:40:30;1.10;96.30
2763;DHT22;1389;51.490;7.338;2022-12-10T06:42:56;1.10;96.40
2763;DHT22;1389;51.490;7.338;2022-12-10T06:45:22;1.00;96.30
2763;DHT22;1389;51.490;7.338;2022-12-10T06:47:48;1.00;96.30
2763;DHT22;1389;51.490;7.338;2022-12-10T06:50:14;1.00;96.50
2763;DHT22;1389;51.490;7.338;2022-12-10T06:52:40;0.90;96.50
2763;DHT22;1389;51.490;7.338;2022-12-10T06:55:07;0.90;96.60
2763;DHT22;1389;51.490;7.338;2022-12-10T06:57:33;0.90;96.80
2763;DHT22;1389;51.490;7.338;2022-12-10T06:59:59;0.80;96.80
2763;DHT22;1389;51.490;7.338;2022-12-10T07:02:25;0.80;96.70
2763;DHT22;1389;51.490;7.338;2022-12-10T07:04:51;0.80;96.80
2763;DHT22;1389;51.490;7.338;2022-12-10T07:07:17;0.80;96.80
2763;DHT22;1389;51.490;7.338;2022-12-10T07:09:43;0.70;97.10
2763;DHT22;1389;51.490;7.338;2022-12-10T07:12:09;0.70;97.20
2763;DHT22;1389;51.490;7.338;2022-12-10T07:14:35;0.70;97.20
2763;DHT22;1389;51.490;7.338;2022-12-10T07:17:01;0.70;97.30
2763;DHT22;1389;51.490;7.338;2022-12-10T07:19:28;0.60;97.30
2763;DHT22;1389;51.490;7.338;2022-12-10T07:21:54;0.60;97.30
2763;DHT22;1389;51.490;7.338;2022-12-10T07:24:20;0.60;97.20
2763;DHT22;1389;51.490;7.338;2022-12-10T07:26:46;0.60;97.20
2763;DHT22;1389;51.490;7.338;2022-12-10T07:29:18;0.50;97.20
2763;DHT22;1389;51.490;7.338;2022-12-10T07:31:45;0.50;97.20
2763;DHT22;1389;51.490;7.338;2022-12-10T07:34:12;0.50;97.30
2763;DHT22;1389;51.490;7.338;2022-12-10T07:36:38;0.50;97.30
2763;DHT22;1389;51.490;7.338;2022-12-10T07:39:06;0.50;97.30
2763;DHT22;1389;51.490;7.338;2022-12-10T07:41:32;0.40;97.30
2763;DHT22;1389;51.490;7.338;2022-12-10T07:43:59;0.40;97.40
2763;DHT22;1389;51.490;7.338;2022-12-10T07:46:27;0.40;97.50
2763;DHT22;1389;51.490;7.338;2022-12-10T07:48:54;0.40;97.60
2763;DHT22;1389;51.490;7.338;2022-12-10T07:51:21;0.50;97.60
2763;DHT22;1389;51.490;7.338;2022-12-10T07:53:51;0.50;97.50
2763;DHT22;1389;51.490;7.338;2022-12-10T07:56:17;0.50;97.30
2763;DHT22;1389;51.490;7.338;2022-12-10T07:58:44;0.50;97.30
2763;DHT22;1389;51.490;7.338;2022-12-10T08:01:12;0.60;97.40
2763;DHT22;1389;51.490;7.338;2022-12-10T08:03:39;0.60;97.00
2763;DHT22;1389;51.490;7.338;2022-12-10T08:06:10;0.60;96.90
2763;DHT22;1389;51.490;7.338;2022-12-10T08:08:37;0.60;96.80
2763;DHT22;1389;51.490;7.338;2022-12-10T08:11:04;0.60;96.80
2763;DHT22;1389;51.490;7.338;2022-12-10T08:13:32;0.60;96.80
2763;DHT22;1389;51.490;7.338;2022-12-10T08:16:07;0.70;96.80
2763;DHT22;1389;51.490;7.338;2022-12-10T08:18:34;0.70;96.60
2763;DHT22;1389;51.490;7.338;2022-12-10T08:21:15;0.70;96.60
2763;DHT22;1389;51.490;7.338;2022-12-10T08:23:42;0.80;96.70
2763;DHT22;1389;51.490;7.338;2022-12-10T08:26:10;0.80;96.60
2763;DHT22;1389;51.490;7.338;2022-12-10T08:28:37;0.80;96.60
2763;DHT22;1389;51.490;7.338;2022-12-10T08:31:04;0.80;96.50
2763;DHT22;1389;51.490;7.338;2022-12-10T08:33:33;0.80;96.70
2763;DHT22;1389;51.490;7.338;2022-12-10T08:35:59;0.80;96.70
2763;DHT22;1389;51.490;7.338;2022-12-10T08:38:26;0.90;96.90
2763;DHT22;1389;51.490;7.338;2022-12-10T08:40:52;0.90;96.90
2763;DHT22;1389;51.490;7.338;2022-12-10T08:43:18;0.90;97.00
2763;DHT22;1389;51.490;7.338;2022-12-10T08:45:44;0.90;96.80
2763;DHT22;1389;51.490;7.338;2022-12-10T08:48:10;0.90;97.00
2763;DHT22;1389;51.490;7.338;2022-12-10T08:50:37;0.90;97.00
2763;DHT22;1389;51.490;7.338;2022-12-10T08:53:03;1.00;97.00
2763;DHT22;1389;51.490;7.338;2022-12-10T08:55:29;1.00;97.00
2763;DHT22;1389;51.490;7.338;2022-12-10T08:57:57;1.00;97.20
2763;DHT22;1389;51.490;7.338;2022-12-10T09:00:24;1.00;97.20
2763;DHT22;1389;51.490;7.338;2022-12-10T09:02:50;1.00;97.20
2763;DHT22;1389;51.490;7.338;2022-12-10T09:05:17;1.00;97.20
2763;DHT22;1389;51.490;7.338;2022-12-10T09:07:43;1.00;96.90
2763;DHT22;1389;51.490;7.338;2022-12-10T09:10:10;1.10;96.50
2763;DHT22;1389;51.490;7.338;2022-12-10T09:12:38;1.10;96.20
2763;DHT22;1389;51.490;7.338;2022-12-10T09:15:05;1.10;95.80
2763;DHT22;1389;51.490;7.338;2022-12-10T09:17:32;1.10;95.20
2763;DHT22;1389;51.490;7.338;2022-12-10T09:20:00;1.10;95.10
2763;DHT22;1389;51.490;7.338;2022-12-10T09:22:26;1.20;95.10
2763;DHT22;1389;51.490;7.338;2022-12-10T09:24:52;1.20;94.90
2763;DHT22;1389;51.490;7.338;2022-12-10T09:27:18;1.20;94.70
2763;DHT22;1389;51.490;7.338;2022-12-10T09:29:46;1.20;94.60
2763;DHT22;1389;51.490;7.338;2022-12-10T09:32:12;1.20;94.70
2763;DHT22;1389;51.490;7.338;2022-12-10T09:34:38;1.30;94.70
2763;DHT22;1389;51.490;7.338;2022-12-10T09:37:04;1.20;94.70
2763;DHT22;1389;51.490;7.338;2022-12-10T09:39:30;1.20;95.00
2763;DHT22;1389;51.490;7.338;2022-12-10T09:47:15;1.20;95.10
2763;DHT22;1389;51.490;7.338;2022-12-10T09:50:04;1.10;95.20
2763;DHT22;1389;51.490;7.338;2022-12-10T09:52:42;1.10;95.50
2763;DHT22;1389;51.490;7.338;2022-12-10T09:55:18;1.10;94.70
2763;DHT22;1389;51.490;7.338;2022-12-10T09:57:49;1.10;94.90
2763;DHT22;1389;51.490;7.338;2022-12-10T10:00:39;1.00;94.50
2763;DHT22;1389;51.490;7.338;2022-12-10T10:03:05;1.00;94.80
2763;DHT22;1389;51.490;7.338;2022-12-10T10:05:48;0.90;95.00
2763;DHT22;1389;51.490;7.338;2022-12-10T10:08:23;0.90;94.60
2763;DHT22;1389;51.490;7.338;2022-12-10T10:10:52;0.80;94.10
2763;DHT22;1389;51.490;7.338;2022-12-10T10:13:32;0.80;94.90
2763;DHT22;1389;51.490;7.338;2022-12-10T10:16:20;0.80;95.20
2763;DHT22;1389;51.490;7.338;2022-12-10T10:19:13;0.80;95.40
2763;DHT22;1389;51.490;7.338;2022-12-10T10:21:42;0.80;94.90
2763;DHT22;1389;51.490;7.338;2022-12-10T10:24:13;0.70;94.40
2763;DHT22;1389;51.490;7.338;2022-12-10T10:26:40;0.60;94.40
2763;DHT22;1389;51.490;7.338;2022-12-10T10:29:12;0.60;94.60
2763;DHT22;1389;51.490;7.338;2022-12-10T10:31:41;0.60;94.50
2763;DHT22;1389;51.490;7.338;2022-12-10T10:34:16;0.60;94.70
2763;DHT22;1389;51.490;7.338;2022-12-10T10:36:42;0.50;95.20
2763;DHT22;1389;51.490;7.338;2022-12-10T10:39:17;0.60;95.80
2763;DHT22;1389;51.490;7.338;2022-12-10T10:41:49;0.70;96.20
2763;DHT22;1389;51.490;7.338;2022-12-10T10:44:20;0.70;95.20
2763;DHT22;1389;51.490;7.338;2022-12-10T10:46:50;0.70;95.00
2763;DHT22;1389;51.490;7.338;2022-12-10T10:49:29;0.70;95.20
2763;DHT22;1389;51.490;7.338;2022-12-10T10:52:01;0.70;95.10
2763;DHT22;1389;51.490;7.338;2022-12-10T10:54:40;0.70;95.10
2763;DHT22;1389;51.490;7.338;2022-12-10T10:57:25;0.70;95.00
2763;DHT22;1389;51.490;7.338;2022-12-10T11:00:00;0.70;95.40
2763;DHT22;1389;51.490;7.338;2022-12-10T11:02:36;0.80;95.30
2763;DHT22;1389;51.490;7.338;2022-12-10T11:05:19;0.70;95.40
2763;DHT22;1389;51.490;7.338;2022-12-10T11:07:48;0.70;95.70
2763;DHT22;1389;51.490;7.338;2022-12-10T11:10:19;0.80;96.00
2763;DHT22;1389;51.490;7.338;2022-12-10T11:15:34;0.90;96.20
2763;DHT22;1389;51.490;7.338;2022-12-10T11:18:01;0.90;95.70
2763;DHT22;1389;51.490;7.338;2022-12-10T11:20:30;0.90;95.40
2763;DHT22;1389;51.490;7.338;2022-12-10T11:22:58;0.90;95.10
2763;DHT22;1389;51.490;7.338;2022-12-10T11:28:12;0.90;95.70
2763;DHT22;1389;51.490;7.338;2022-12-10T11:30:51;0.90;96.10
2763;DHT22;1389;51.490;7.338;2022-12-10T11:33:44;1.00;96.20
2763;DHT22;1389;51.490;7.338;2022-12-10T11:39:10;1.10;95.90
2763;DHT22;1389;51.490;7.338;2022-12-10T11:44:49;1.10;95.30
2763;DHT22;1389;51.490;7.338;2022-12-10T11:47:45;1.00;95.50
2763;DHT22;1389;51.490;7.338;2022-12-10T11:50:40;1.00;96.00
2763;DHT22;1389;51.490;7.338;2022-12-10T11:53:34;1.10;96.20
2763;DHT22;1389;51.490;7.338;2022-12-10T12:01:36;1.10;95.90
2763;DHT22;1389;51.490;7.338;2022-12-10T12:07:26;1.20;96.00
2763;DHT22;1389;51.490;7.338;2022-12-10T12:13:08;1.20;96.30
2763;DHT22;1389;51.490;7.338;2022-12-10T12:15:40;1.30;96.40
2763;DHT22;1389;51.490;7.338;2022-12-10T12:20:57;1.30;95.20
2763;DHT22;1389;51.490;7.338;2022-12-10T12:23:37;1.30;95.60
2763;DHT22;1389;51.490;7.338;2022-12-10T12:26:27;1.30;96.00
2763;DHT22;1389;51.490;7.338;2022-12-10T12:29:20;1.30;95.70
2763;DHT22;1389;51.490;7.338;2022-12-10T12:37:10;1.30;96.20
2763;DHT22;1389;51.490;7.338;2022-12-10T12:40:12;1.30;95.70
2763;DHT22;1389;51.490;7.338;2022-12-10T12:43:01;1.30;96.00
2763;DHT22;1389;51.490;7.338;2022-12-10T12:45:36;1.40;96.20
2763;DHT22;1389;51.490;7.338;2022-12-10T12:48:18;1.40;95.90
2763;DHT22;1389;51.490;7.338;2022-12-10T12:50:54;1.40;95.80
2763;DHT22;1389;51.490;7.338;2022-12-10T12:53:23;1.30;95.70
2763;DHT22;1389;51.490;7.338;2022-12-10T13:01:49;1.30;95.70
2763;DHT22;1389;51.490;7.338;2022-12-10T13:04:18;1.30;95.60
2763;DHT22;1389;51.490;7.338;2022-12-10T13:09:44;1.30;96.20
2763;DHT22;1389;51.490;7.338;2022-12-10T13:12:30;1.40;96.10
2763;DHT22;1389;51.490;7.338;2022-12-10T13:15:17;1.40;96.00
2763;DHT22;1389;51.490;7.338;2022-12-10T13:18:34;1.40;96.10
2763;DHT22;1389;51.490;7.338;2022-12-10T13:23:54;1.40;95.90
2763;DHT22;1389;51.490;7.338;2022-12-10T13:26:30;1.40;95.90
2763;DHT22;1389;51.490;7.338;2022-12-10T13:29:23;1.40;95.60
2763;DHT22;1389;51.490;7.338;2022-12-10T13:32:02;1.40;95.50
2763;DHT22;1389;51.490;7.338;2022-12-10T13:34:36;1.40;95.50
2763;DHT22;1389;51.490;7.338;2022-12-10T13:37:15;1.40;95.80
2763;DHT22;1389;51.490;7.338;2022-12-10T13:39:54;1.50;95.90
2763;DHT22;1389;51.490;7.338;2022-12-10T13:42:31;1.50;95.90
2763;DHT22;1389;51.490;7.338;2022-12-10T13:48:17;1.50;96.20
2763;DHT22;1389;51.490;7.338;2022-12-10T13:50:52;1.50;96.00
2763;DHT22;1389;51.490;7.338;2022-12-10T13:53:53;1.50;95.30
2763;DHT22;1389;51.490;7.338;2022-12-10T13:56:30;1.50;95.50
2763;DHT22;1389;51.490;7.338;2022-12-10T14:07:38;1.50;95.30
2763;DHT22;1389;51.490;7.338;2022-12-10T14:10:11;1.50;95.10
2763;DHT22;1389;51.490;7.338;2022-12-10T14:12:40;1.50;95.20
2763;DHT22;1389;51.490;7.338;2022-12-10T14:15:14;1.50;95.70
2763;DHT22;1389;51.490;7.338;2022-12-10T14:17:42;1.50;96.00
2763;DHT22;1389;51.490;7.338;2022-12-10T14:20:22;1.50;96.50
2763;DHT22;1389;51.490;7.338;2022-12-10T14:22:54;1.50;96.50
2763;DHT22;1389;51.490;7.338;2022-12-10T14:25:46;1.60;96.30
2763;DHT22;1389;51.490;7.338;2022-12-10T14:28:17;1.60;95.70
2763;DHT22;1389;51.490;7.338;2022-12-10T14:30:45;1.60;96.10
2763;DHT22;1389;51.490;7.338;2022-12-10T14:33:18;1.70;96.20
2763;DHT22;1389;51.490;7.338;2022-12-10T14:35:48;1.70;96.10
2763;DHT22;1389;51.490;7.338;2022-12-10T14:38:21;1.70;95.70
2763;DHT22;1389;51.490;7.338;2022-12-10T14:40:49;1.70;95.10
2763;DHT22;1389;51.490;7.338;2022-12-10T14:43:19;1.60;94.80
2763;DHT22;1389;51.490;7.338;2022-12-10T14:45:58;1.60;95.10
2763;DHT22;1389;51.490;7.338;2022-12-10T14:48:25;1.60;95.40
2763;DHT22;1389;51.490;7.338;2022-12-10T14:50:52;1.60;95.60
2763;DHT22;1389;51.490;7.338;2022-12-10T14:53:22;1.60;95.80
2763;DHT22;1389;51.490;7.338;2022-12-10T14:55:53;1.60;96.00
2763;DHT22;1389;51.490;7.338;2022-12-10T14:58:30;1.60;95.90
2763;DHT22;1389;51.490;7.338;2022-12-10T15:00:58;1.60;96.10
2763;DHT22;1389;51.490;7.338;2022-12-10T15:03:28;1.60;96.10
2763;DHT22;1389;51.490;7.338;2022-12-10T15:06:00;1.60;96.10
2763;DHT22;1389;51.490;7.338;2022-12-10T15:08:28;1.60;95.90
2763;DHT22;1389;51.490;7.338;2022-12-10T15:10:57;1.60;95.80
2763;DHT22;1389;51.490;7.338;2022-12-10T15:13:40;1.60;96.10
2763;DHT22;1389;51.490;7.338;2022-12-10T15:16:18;1.60;96.50
2763;DHT22;1389;51.490;7.338;2022-12-10T15:18:44;1.60;96.70
2763;DHT22;1389;51.490;7.338;2022-12-10T15:21:20;1.60;96.60
2763;DHT22;1389;51.490;7.338;2022-12-10T15:23:46;1.70;96.40
2763;DHT22;1389;51.490;7.338;2022-12-10T15:26:24;1.70;96.50
2763;DHT22;1389;51.490;7.338;2022-12-10T15:28:53;1.70;96.70
2763;DHT22;1389;51.490;7.338;2022-12-10T15:31:38;1.60;96.60
2763;DHT22;1389;51.490;7.338;2022-12-10T15:34:08;1.70;96.60
2763;DHT22;1389;51.490;7.338;2022-12-10T15:36:39;1.70;96.50
2763;DHT22;1389;51.490;7.338;2022-12-10T15:41:58;1.70;96.40
2763;DHT22;1389;51.490;7.338;2022-12-10T15:44:34;1.70;96.00
2763;DHT22;1389;51.490;7.338;2022-12-10T15:47:20;1.60;96.10
2763;DHT22;1389;51.490;7.338;2022-12-10T15:49:48;1.60;95.90
2763;DHT22;1389;51.490;7.338;2022-12-10T15:52:22;1.60;95.90
2763;DHT22;1389;51.490;7.338;2022-12-10T15:54:52;1.60;96.00
2763;DHT22;1389;51.490;7.338;2022-12-10T15:57:26;1.60;96.20
2763;DHT22;1389;51.490;7.338;2022-12-10T15:59:58;1.60;96.10
2763;DHT22;1389;51.490;7.338;2022-12-10T16:07:36;1.70;95.80
2763;DHT22;1389;51.490;7.338;2022-12-10T16:10:03;1.70;95.60
2763;DHT22;1389;51.490;7.338;2022-12-10T16:12:30;1.70;95.80
2763;DHT22;1389;51.490;7.338;2022-12-10T16:14:57;1.70;95.90
2763;DHT22;1389;51.490;7.338;2022-12-10T16:17:26;1.70;96.10
2763;DHT22;1389;51.490;7.338;2022-12-10T16:19:56;1.70;96.10
2763;DHT22;1389;51.490;7.338;2022-12-10T16:22:22;1.70;95.90
2763;DHT22;1389;51.490;7.338;2022-12-10T16:24:48;1.70;95.90
2763;DHT22;1389;51.490;7.338;2022-12-10T16:27:14;1.70;95.50
2763;DHT22;1389;51.490;7.338;2022-12-10T16:29:42;1.70;95.50
2763;DHT22;1389;51.490;7.338;2022-12-10T16:32:11;1.60;95.60
2763;DHT22;1389;51.490;7.338;2022-12-10T16:34:38;1.60;95.80
2763;DHT22;1389;51.490;7.338;2022-12-10T16:37:05;1.70;95.90
2763;DHT22;1389;51.490;7.338;2022-12-10T16:39:32;1.60;95.60
2763;DHT22;1389;51.490;7.338;2022-12-10T16:41:58;1.60;95.30
2763;DHT22;1389;51.490;7.338;2022-12-10T16:44:24;1.70;94.90
2763;DHT22;1389;51.490;7.338;2022-12-10T16:46:50;1.60;95.10
2763;DHT22;1389;51.490;7.338;2022-12-10T16:49:16;1.60;95.40
2763;DHT22;1389;51.490;7.338;2022-12-10T16:51:43;1.60;95.60
2763;DHT22;1389;51.490;7.338;2022-12-10T16:54:10;1.60;95.10
2763;DHT22;1389;51.490;7.338;2022-12-10T16:56:37;1.60;95.10
2763;DHT22;1389;51.490;7.338;2022-12-10T16:59:03;1.60;95.30
2763;DHT22;1389;51.490;7.338;2022-12-10T17:01:29;1.60;95.70
2763;DHT22;1389;51.490;7.338;2022-12-10T17:03:59;1.60;95.60
2763;DHT22;1389;51.490;7.338;2022-12-10T17:06:26;1.60;95.90
2763;DHT22;1389;51.490;7.338;2022-12-10T17:08:52;1.70;95.90
2763;DHT22;1389;51.490;7.338;2022-12-10T17:11:21;1.60;95.90
2763;DHT22;1389;51.490;7.338;2022-12-10T17:14:28;1.60;95.90
2763;DHT22;1389;51.490;7.338;2022-12-10T17:16:57;1.60;96.10
2763;DHT22;1389;51.490;7.338;2022-12-10T17:19:27;1.70;96.30
2763;DHT22;1389;51.490;7.338;2022-12-10T17:21:54;1.70;96.20
2763;DHT22;1389;51.490;7.338;2022-12-10T17:24:20;1.70;96.40
2763;DHT22;1389;51.490;7.338;2022-12-10T17:26:47;1.70;96.30
2763;DHT22;1389;51.490;7.338;2022-12-10T17:29:28;1.70;96.20
2763;DHT22;1389;51.490;7.338;2022-12-10T17:31:55;1.70;96.20
2763;DHT22;1389;51.490;7.338;2022-12-10T17:34:21;1.80;96.30
2763;DHT22;1389;51.490;7.338;2022-12-10T17:36:50;1.80;96.20
2763;DHT22;1389;51.490;7.338;2022-12-10T17:39:18;1.80;96.00
2763;DHT22;1389;51.490;7.338;2022-12-10T17:41:47;1.80;95.70
2763;DHT22;1389;51.490;7.338;2022-12-10T17:44:13;1.70;95.70
2763;DHT22;1389;51.490;7.338;2022-12-10T17:46:39;1.70;95.70
2763;DHT22;1389;51.490;7.338;2022-12-10T17:49:05;1.80;95.60
2763;DHT22;1389;51.490;7.338;2022-12-10T17:51:31;1.80;95.40
2763;DHT22;1389;51.490;7.338;2022-12-10T17:53:58;1.80;95.20
2763;DHT22;1389;51.490;7.338;2022-12-10T17:56:26;1.80;95.20
2763;DHT22;1389;51.490;7.338;2022-12-10T17:58:54;1.70;94.80
2763;DHT22;1389;51.490;7.338;2022-12-10T18:01:20;1.70;94.70